sensor_id;sensor_type;location;lat;lon;timestamp;temperature;humidity
10051;DHT22;5065;46.942;7.432;2023-03-01T00:01:39;2.80;99.90
10051;DHT22;5065;46.942;7.432;2023-03-01T00:04:06;2.80;99.90
10051;DHT22;5065;46.942;7.432;2023-03-01T00:06:35;2.80;99.90
10051;DHT22;5065;46.942;7.432;2023-03-01T00:09:03;2.80;99.90
10051;DHT22;5065;46.942;7.432;2023-03-01T00:11:32;2.80;99.90
10051;DHT22;5065;46.942;7.432;2023-03-01T00:14:01;2.80;99.90
10051;DHT22;5065;46.942;7.432;2023-03-01T00:16:32;2.70;99.90
10051;DHT22;5065;46.942;7.432;2023-03-01T00:19:00;2.70;99.90
10051;DHT22;5065;46.942;7.432;2023-03-01T00:21:27;2.70;99.90
10051;DHT22;5065;46.942;7.432;2023-03-01T00:23:55;2.70;99.90
10051;DHT22;5065;46.942;7.432;2023-03-01T00:26:24;2.70;99.90
10051;DHT22;5065;46.942;7.432;2023-03-01T00:28:53;2.70;99.90
10051;DHT22;5065;46.942;7.432;2023-03-01T00:31:23;2.70;99.90
10051;DHT22;5065;46.942;7.432;2023-03-01T00:33:52;2.70;99.90
10051;DHT22;5065;46.942;7.432;2023-03-01T00:36:23;2.70;99.90
10051;DHT22;5065;46.942;7.432;2023-03-01T00:38:51;2.60;99.90
10051;DHT22;5065;46.942;7.432;2023-03-01T00:41:19;2.70;99.90
10051;DHT22;5065;46.942;7.432;2023-03-01T00:43:49;2.70;99.90
10051;DHT22;5065;46.942;7.432;2023-03-01T00:46:19;2.70;99.90
10051;DHT22;5065;46.942;7.432;2023-03-01T00:48:47;2.70;99.90
10051;DHT22;5065;46.942;7.432;2023-03-01T00:51:15;2.70;99.90
10051;DHT22;5065;46.942;7.432;2023-03-01T00:53:44;2.70;99.90
10051;DHT22;5065;46.942;7.432;2023-03-01T00:56:12;2.60;99.90
10051;DHT22;5065;46.942;7.432;2023-03-01T00:58:40;2.40;99.90
10051;DHT22;5065;46.942;7.432;2023-03-01T01:01:08;2.20;99.90
10051;DHT22;5065;46.942;7.432;2023-03-01T01:03:45;2.30;99.90
10051;DHT22;5065;46.942;7.432;2023-03-01T01:06:16;2.20;99.90
10051;DHT22;5065;46.942;7.432;2023-03-01T01:08:44;2.20;99.90
10051;DHT22;5065;46.942;7.432;2023-03-01T01:11:14;2.30;99.90
10051;DHT22;5065;46.942;7.432;2023-03-01T01:13:45;2.40;99.90
10051;DHT22;5065;46.942;7.432;2023-03-01T01:16:13;2.40;99.90
10051;DHT22;5065;46.942;7.432;2023-03-01T01:18:40;2.40;99.90
10051;DHT22;5065;46.942;7.432;2023-03-01T01:21:11;2.50;99.90
10051;DHT22;5065;46.942;7.432;2023-03-01T01:23:40;2.40;99.90
10051;DHT22;5065;46.942;7.432;2023-03-01T01:26:09;2.30;99.90
10051;DHT22;5065;46.942;7.432;2023-03-01T01:28:37;2.40;99.90
10051;DHT22;5065;46.942;7.432;2023-03-01T01:31:04;2.40;99.90
10051;DHT22;5065;46.942;7.432;2023-03-01T01:33:32;2.50;99.90
10051;DHT22;5065;46.942;7.432;2023-03-01T01:36:01;2.50;99.90
10051;DHT22;5065;46.942;7.432;2023-03-01T01:38:30;2.50;99.90
10051;DHT22;5065;46.942;7.432;2023-03-01T01:40:57;2.60;99.90
10051;DHT22;5065;46.942;7.432;2023-03-01T01:43:29;2.60;99.90
10051;DHT22;5065;46.942;7.432;2023-03-01T01:45:58;2.60;99.90
10051;DHT22;5065;46.942;7.432;2023-03-01T01:48:31;2.60;99.90
10051;DHT22;5065;46.942;7.432;2023-03-01T01:51:07;2.70;99.90
10051;DHT22;5065;46.942;7.432;2023-03-01T01:53:38;2.70;99.90
10051;DHT22;5065;46.942;7.432;2023-03-01T01:56:07;2.60;99.90
10051;DHT22;5065;46.942;7.432;2023-03-01T01:58:36;2.60;99.90
10051;DHT22;5065;46.942;7.432;2023-03-01T02:01:05;2.60;99.90
10051;DHT22;5065;46.942;7.432;2023-03-01T02:03:33;2.60;99.90
10051;DHT22;5065;46.942;7.432;2023-03-01T02:06:06;2.50;99.90
10051;DHT22;5065;46.942;7.432;2023-03-01T02:08:39;2.40;99.90
10051;DHT22;5065;46.942;7.432;2023-03-01T02:11:08;2.30;99.90
10051;DHT22;5065;46.942;7.432;2023-03-01T02:13:36;2.40;99.90
10051;DHT22;5065;46.942;7.432;2023-03-01T02:16:05;2.30;99.90
10051;DHT22;5065;46.942;7.432;2023-03-01T02:18:34;2.40;99.90
10051;DHT22;5065;46.942;7.432;2023-03-01T02:21:10;2.40;99.90
10051;DHT22;5065;46.942;7.432;2023-03-01T02:23:42;2.40;99.90
10051;DHT22;5065;46.942;7.432;2023-03-01T02:26:14;2.40;99.90
10051;DHT22;5065;46.942;7.432;2023-03-01T02:28:46;2.50;99.90
10051;DHT22;5065;46.942;7.432;2023-03-01T02:31:16;2.60;99.90
10051;DHT22;5065;46.942;7.432;2023-03-01T02:34:01;2.50;99.90
10051;DHT22;5065;46.942;7.432;2023-03-01T02:36:32;2.50;99.90
10051;DHT22;5065;46.942;7.432;2023-03-01T02:39:04;2.40;99.90
10051;DHT22;5065;46.942;7.432;2023-03-01T02:41:36;2.40;99.90
10051;DHT22;5065;46.942;7.432;2023-03-01T02:44:06;2.40;99.90
10051;DHT22;5065;46.942;7.432;2023-03-01T02:46:35;2.40;99.90
10051;DHT22;5065;46.942;7.432;2023-03-01T02:49:20;2.30;99.90
10051;DHT22;5065;46.942;7.432;2023-03-01T02:54:58;2.40;99.90
10051;DHT22;5065;46.942;7.432;2023-03-01T02:57:27;2.40;99.90
10051;DHT22;5065;46.942;7.432;2023-03-01T02:59:58;2.50;99.90
10051;DHT22;5065;46.942;7.432;2023-03-01T03:02:28;2.60;99.90
10051;DHT22;5065;46.942;7.432;2023-03-01T03:05:04;2.60;99.90
10051;DHT22;5065;46.942;7.432;2023-03-01T03:07:34;2.70;99.90
10051;DHT22;5065;46.942;7.432;2023-03-01T03:10:04;2.60;99.90
10051;DHT22;5065;46.942;7.432;2023-03-01T03:12:31;2.60;99.90
10051;DHT22;5065;46.942;7.432;2023-03-01T03:15:00;2.40;99.90
10051;DHT22;5065;46.942;7.432;2023-03-01T03:17:34;2.40;99.90
10051;DHT22;5065;46.942;7.432;2023-03-01T03:20:02;2.40;99.90
10051;DHT22;5065;46.942;7.432;2023-03-01T03:22:30;2.50;99.90
10051;DHT22;5065;46.942;7.432;2023-03-01T03:24:59;2.40;99.90
10051;DHT22;5065;46.942;7.432;2023-03-01T03:27:27;2.50;99.90
10051;DHT22;5065;46.942;7.432;2023-03-01T03:29:57;2.40;99.90
10051;DHT22;5065;46.942;7.432;2023-03-01T03:32:26;2.50;99.90
10051;DHT22;5065;46.942;7.432;2023-03-01T03:34:53;2.50;99.90
10051;DHT22;5065;46.942;7.432;2023-03-01T03:37:20;2.50;99.90
10051;DHT22;5065;46.942;7.432;2023-03-01T03:40:06;2.40;99.90
10051;DHT22;5065;46.942;7.432;2023-03-01T03:42:41;2.40;99.90
10051;DHT22;5065;46.942;7.432;2023-03-01T03:45:08;2.50;99.90
10051;DHT22;5065;46.942;7.432;2023-03-01T03:47:37;2.50;99.90
10051;DHT22;5065;46.942;7.432;2023-03-01T03:50:05;2.50;99.90
10051;DHT22;5065;46.942;7.432;2023-03-01T03:52:32;2.50;99.90
10051;DHT22;5065;46.942;7.432;2023-03-01T03:54:59;2.50;99.90
10051;DHT22;5065;46.942;7.432;2023-03-01T03:57:26;2.50;99.90
10051;DHT22;5065;46.942;7.432;2023-03-01T03:59:53;2.30;99.90
10051;DHT22;5065;46.942;7.432;2023-03-01T04:02:20;2.20;99.90
10051;DHT22;5065;46.942;7.432;2023-03-01T04:04:50;2.10;99.90
10051;DHT22;5065;46.942;7.432;2023-03-01T04:07:17;2.20;99.90
10051;DHT22;5065;46.942;7.432;2023-03-01T04:09:44;2.20;99.90
10051;DHT22;5065;46.942;7.432;2023-03-01T04:12:11;2.20;99.90
10051;DHT22;5065;46.942;7.432;2023-03-01T04:14:39;2.30;99.90
10051;DHT22;5065;46.942;7.432;2023-03-01T04:17:06;2.30;99.90
10051;DHT22;5065;46.942;7.432;2023-03-01T04:19:33;2.30;99.90
10051;DHT22;5065;46.942;7.432;2023-03-01T04:22:03;2.20;99.90
10051;DHT22;5065;46.942;7.432;2023-03-01T04:24:35;2.20;99.90
10051;DHT22;5065;46.942;7.432;2023-03-01T04:27:02;2.20;99.90
10051;DHT22;5065;46.942;7.432;2023-03-01T04:29:30;2.20;99.90
10051;DHT22;5065;46.942;7.432;2023-03-01T04:31:57;2.20;99.90
10051;DHT22;5065;46.942;7.432;2023-03-01T04:34:24;2.30;99.90
10051;DHT22;5065;46.942;7.432;2023-03-01T04:36:52;2.20;99.90
10051;DHT22;5065;46.942;7.432;2023-03-01T04:39:21;2.10;99.90
10051;DHT22;5065;46.942;7.432;2023-03-01T04:41:48;2.20;99.90
10051;DHT22;5065;46.942;7.432;2023-03-01T04:44:15;2.30;99.90
10051;DHT22;5065;46.942;7.432;2023-03-01T04:46:43;2.30;99.90
10051;DHT22;5065;46.942;7.432;2023-03-01T04:49:12;2.30;99.90
10051;DHT22;5065;46.942;7.432;2023-03-01T04:51:39;2.20;99.90
10051;DHT22;5065;46.942;7.432;2023-03-01T04:54:06;2.10;99.90
10051;DHT22;5065;46.942;7.432;2023-03-01T04:56:35;2.20;99.90
10051;DHT22;5065;46.942;7.432;2023-03-01T04:59:03;2.10;99.90
10051;DHT22;5065;46.942;7.432;2023-03-01T05:01:31;2.10;99.90
10051;DHT22;5065;46.942;7.432;2023-03-01T05:03:58;2.20;99.90
10051;DHT22;5065;46.942;7.432;2023-03-01T05:06:28;2.20;99.90
10051;DHT22;5065;46.942;7.432;2023-03-01T05:08:59;2.30;99.90
10051;DHT22;5065;46.942;7.432;2023-03-01T05:11:26;2.40;99.90
10051;DHT22;5065;46.942;7.432;2023-03-01T05:14:00;2.40;99.90
10051;DHT22;5065;46.942;7.432;2023-03-01T05:16:27;2.40;99.90
10051;DHT22;5065;46.942;7.432;2023-03-01T05:18:56;2.40;99.90
10051;DHT22;5065;46.942;7.432;2023-03-01T05:21:23;2.40;99.90
10051;DHT22;5065;46.942;7.432;2023-03-01T05:23:51;2.40;99.90
10051;DHT22;5065;46.942;7.432;2023-03-01T05:26:20;2.40;99.90
10051;DHT22;5065;46.942;7.432;2023-03-01T05:28:52;2.40;99.90
10051;DHT22;5065;46.942;7.432;2023-03-01T05:31:25;2.30;99.90
10051;DHT22;5065;46.942;7.432;2023-03-01T05:33:52;2.30;99.90
10051;DHT22;5065;46.942;7.432;2023-03-01T05:36:19;2.20;99.90
10051;DHT22;5065;46.942;7.432;2023-03-01T05:38:47;2.10;99.90
10051;DHT22;5065;46.942;7.432;2023-03-01T05:41:15;2.10;99.90
10051;DHT22;5065;46.942;7.432;2023-03-01T05:43:42;2.20;99.90
10051;DHT22;5065;46.942;7.432;2023-03-01T05:46:10;2.30;99.90
10051;DHT22;5065;46.942;7.432;2023-03-01T05:48:40;2.30;99.90
10051;DHT22;5065;46.942;7.432;2023-03-01T05:51:07;2.30;99.90
10051;DHT22;5065;46.942;7.432;2023-03-01T05:53:34;2.20;99.90
10051;DHT22;5065;46.942;7.432;2023-03-01T05:56:03;2.10;99.90
10051;DHT22;5065;46.942;7.432;2023-03-01T05:58:30;2.10;99.90
10051;DHT22;5065;46.942;7.432;2023-03-01T06:00:57;2.20;99.90
10051;DHT22;5065;46.942;7.432;2023-03-01T06:03:25;2.30;99.90
10051;DHT22;5065;46.942;7.432;2023-03-01T06:05:57;2.40;99.90
10051;DHT22;5065;46.942;7.432;2023-03-01T06:08:24;2.40;99.90
10051;DHT22;5065;46.942;7.432;2023-03-01T06:10:52;2.50;99.90
10051;DHT22;5065;46.942;7.432;2023-03-01T06:13:20;2.40;99.90
10051;DHT22;5065;46.942;7.432;2023-03-01T06:15:48;2.40;99.90
10051;DHT22;5065;46.942;7.432;2023-03-01T06:18:16;2.40;99.90
10051;DHT22;5065;46.942;7.432;2023-03-01T06:20:43;2.40;99.90
10051;DHT22;5065;46.942;7.432;2023-03-01T06:23:11;2.30;99.90
10051;DHT22;5065;46.942;7.432;2023-03-01T06:25:38;2.20;99.90
10051;DHT22;5065;46.942;7.432;2023-03-01T06:28:06;2.30;99.90
10051;DHT22;5065;46.942;7.432;2023-03-01T06:30:33;2.40;99.90
10051;DHT22;5065;46.942;7.432;2023-03-01T06:33:00;2.40;99.90
10051;DHT22;5065;46.942;7.432;2023-03-01T06:35:30;2.50;99.90
10051;DHT22;5065;46.942;7.432;2023-03-01T06:37:58;2.50;99.90
10051;DHT22;5065;46.942;7.432;2023-03-01T06:40:27;2.50;99.90
10051;DHT22;5065;46.942;7.432;2023-03-01T06:42:55;2.40;99.90
10051;DHT22;5065;46.942;7.432;2023-03-01T06:45:22;2.30;99.90
10051;DHT22;5065;46.942;7.432;2023-03-01T06:47:50;2.30;99.90
10051;DHT22;5065;46.942;7.432;2023-03-01T06:50:18;2.30;99.90
10051;DHT22;5065;46.942;7.432;2023-03-01T06:52:45;2.20;99.90
10051;DHT22;5065;46.942;7.432;2023-03-01T06:55:13;2.30;99.90
10051;DHT22;5065;46.942;7.432;2023-03-01T06:57:42;2.30;99.90
10051;DHT22;5065;46.942;7.432;2023-03-01T07:00:10;2.40;99.90
10051;DHT22;5065;46.942;7.432;2023-03-01T07:02:37;2.40;99.90
10051;DHT22;5065;46.942;7.432;2023-03-01T07:05:05;2.40;99.90
10051;DHT22;5065;46.942;7.432;2023-03-01T07:07:32;2.30;99.90
10051;DHT22;5065;46.942;7.432;2023-03-01T07:09:59;2.30;99.90
10051;DHT22;5065;46.942;7.432;2023-03-01T07:12:27;2.40;99.90
10051;DHT22;5065;46.942;7.432;2023-03-01T07:14:55;2.40;99.90
10051;DHT22;5065;46.942;7.432;2023-03-01T07:17:22;2.40;99.90
10051;DHT22;5065;46.942;7.432;2023-03-01T07:19:49;2.50;99.90
10051;DHT22;5065;46.942;7.432;2023-03-01T07:22:17;2.60;99.90
10051;DHT22;5065;46.942;7.432;2023-03-01T07:24:44;2.60;99.90
10051;DHT22;5065;46.942;7.432;2023-03-01T07:27:11;2.70;99.90
10051;DHT22;5065;46.942;7.432;2023-03-01T07:29:38;2.80;99.90
10051;DHT22;5065;46.942;7.432;2023-03-01T07:32:07;2.80;99.90
10051;DHT22;5065;46.942;7.432;2023-03-01T07:34:35;2.80;99.90
10051;DHT22;5065;46.942;7.432;2023-03-01T07:37:02;2.80;99.90
10051;DHT22;5065;46.942;7.432;2023-03-01T07:39:29;2.60;99.90
10051;DHT22;5065;46.942;7.432;2023-03-01T07:41:56;2.70;99.90
10051;DHT22;5065;46.942;7.432;2023-03-01T07:44:23;2.50;99.90
10051;DHT22;5065;46.942;7.432;2023-03-01T07:46:50;2.40;99.90
10051;DHT22;5065;46.942;7.432;2023-03-01T07:49:23;2.40;99.90
10051;DHT22;5065;46.942;7.432;2023-03-01T07:51:52;2.40;99.90
10051;DHT22;5065;46.942;7.432;2023-03-01T07:54:19;2.30;99.90
10051;DHT22;5065;46.942;7.432;2023-03-01T07:56:46;2.30;99.90
10051;DHT22;5065;46.942;7.432;2023-03-01T07:59:13;2.40;99.90
10051;DHT22;5065;46.942;7.432;2023-03-01T08:01:40;2.50;99.90
10051;DHT22;5065;46.942;7.432;2023-03-01T08:04:08;2.50;99.90
10051;DHT22;5065;46.942;7.432;2023-03-01T08:06:37;2.50;99.90
10051;DHT22;5065;46.942;7.432;2023-03-01T08:09:04;2.50;99.90
10051;DHT22;5065;46.942;7.432;2023-03-01T08:11:32;2.60;99.90
10051;DHT22;5065;46.942;7.432;2023-03-01T08:13:59;2.60;99.90
10051;DHT22;5065;46.942;7.432;2023-03-01T08:16:26;2.50;99.90
10051;DHT22;5065;46.942;7.432;2023-03-01T08:18:53;2.50;99.90
10051;DHT22;5065;46.942;7.432;2023-03-01T08:21:22;2.50;99.90
10051;DHT22;5065;46.942;7.432;2023-03-01T08:23:51;2.50;99.90
10051;DHT22;5065;46.942;7.432;2023-03-01T08:26:19;2.60;99.90
10051;DHT22;5065;46.942;7.432;2023-03-01T08:28:48;2.60;99.90
10051;DHT22;5065;46.942;7.432;2023-03-01T08:31:18;2.60;99.90
10051;DHT22;5065;46.942;7.432;2023-03-01T08:33:46;2.60;99.90
10051;DHT22;5065;46.942;7.432;2023-03-01T08:36:16;2.70;99.90
10051;DHT22;5065;46.942;7.432;2023-03-01T08:38:44;2.70;99.90
10051;DHT22;5065;46.942;7.432;2023-03-01T08:41:13;2.70;99.90
10051;DHT22;5065;46.942;7.432;2023-03-01T08:43:40;2.80;99.90
10051;DHT22;5065;46.942;7.432;2023-03-01T08:46:07;2.80;99.90
10051;DHT22;5065;46.942;7.432;2023-03-01T08:48:34;2.70;99.90
10051;DHT22;5065;46.942;7.432;2023-03-01T08:51:07;2.70;99.90
10051;DHT22;5065;46.942;7.432;2023-03-01T08:53:35;2.70;99.90
10051;DHT22;5065;46.942;7.432;2023-03-01T08:56:02;2.70;99.90
10051;DHT22;5065;46.942;7.432;2023-03-01T08:58:31;2.80;99.90
10051;DHT22;5065;46.942;7.432;2023-03-01T09:00:58;2.80;99.90
10051;DHT22;5065;46.942;7.432;2023-03-01T09:03:26;2.80;99.90
10051;DHT22;5065;46.942;7.432;2023-03-01T09:05:59;2.90;99.90
10051;DHT22;5065;46.942;7.432;2023-03-01T09:08:27;2.80;99.90
10051;DHT22;5065;46.942;7.432;2023-03-01T09:10:54;2.80;99.90
10051;DHT22;5065;46.942;7.432;2023-03-01T09:13:21;2.80;99.90
10051;DHT22;5065;46.942;7.432;2023-03-01T09:15:51;2.80;99.90
10051;DHT22;5065;46.942;7.432;2023-03-01T09:18:18;2.70;99.90
10051;DHT22;5065;46.942;7.432;2023-03-01T09:20:46;2.60;99.90
10051;DHT22;5065;46.942;7.432;2023-03-01T09:23:13;2.60;99.90
10051;DHT22;5065;46.942;7.432;2023-03-01T09:25:40;2.60;99.90
10051;DHT22;5065;46.942;7.432;2023-03-01T09:28:07;2.70;99.90
10051;DHT22;5065;46.942;7.432;2023-03-01T09:30:36;2.80;99.90
10051;DHT22;5065;46.942;7.432;2023-03-01T09:33:05;2.90;99.90
10051;DHT22;5065;46.942;7.432;2023-03-01T09:35:32;2.90;99.90
10051;DHT22;5065;46.942;7.432;2023-03-01T09:37:59;3.00;99.90
10051;DHT22;5065;46.942;7.432;2023-03-01T09:40:27;3.00;99.90
10051;DHT22;5065;46.942;7.432;2023-03-01T09:42:59;2.90;99.90
10051;DHT22;5065;46.942;7.432;2023-03-01T09:45:34;2.90;99.90
10051;DHT22;5065;46.942;7.432;2023-03-01T09:48:02;2.90;99.90
10051;DHT22;5065;46.942;7.432;2023-03-01T09:50:35;3.00;99.90
10051;DHT22;5065;46.942;7.432;2023-03-01T09:53:07;2.80;99.90
10051;DHT22;5065;46.942;7.432;2023-03-01T09:55:39;2.90;99.90
10051;DHT22;5065;46.942;7.432;2023-03-01T10:01:26;2.90;99.90
10051;DHT22;5065;46.942;7.432;2023-03-01T10:04:11;3.10;99.90
10051;DHT22;5065;46.942;7.432;2023-03-01T10:06:44;3.10;99.90
10051;DHT22;5065;46.942;7.432;2023-03-01T10:09:15;3.20;99.90
10051;DHT22;5065;46.942;7.432;2023-03-01T10:11:45;3.10;99.90
10051;DHT22;5065;46.942;7.432;2023-03-01T10:14:23;3.20;99.90
10051;DHT22;5065;46.942;7.432;2023-03-01T10:16:57;3.20;99.90
10051;DHT22;5065;46.942;7.432;2023-03-01T10:19:32;3.20;99.90
10051;DHT22;5065;46.942;7.432;2023-03-01T10:22:08;3.20;99.90
10051;DHT22;5065;46.942;7.432;2023-03-01T10:24:37;3.20;99.90
10051;DHT22;5065;46.942;7.432;2023-03-01T10:27:07;3.30;99.90
10051;DHT22;5065;46.942;7.432;2023-03-01T10:29:40;3.30;99.90
10051;DHT22;5065;46.942;7.432;2023-03-01T10:32:11;3.30;99.90
10051;DHT22;5065;46.942;7.432;2023-03-01T10:34:38;3.30;99.90
10051;DHT22;5065;46.942;7.432;2023-03-01T10:37:12;3.20;99.90
10051;DHT22;5065;46.942;7.432;2023-03-01T10:39:58;3.30;99.90
10051;DHT22;5065;46.942;7.432;2023-03-01T10:42:32;3.40;99.90
10051;DHT22;5065;46.942;7.432;2023-03-01T10:45:19;3.30;99.90
10051;DHT22;5065;46.942;7.432;2023-03-01T10:48:10;3.20;99.90
10051;DHT22;5065;46.942;7.432;2023-03-01T10:50:39;3.20;99.90
10051;DHT22;5065;46.942;7.432;2023-03-01T10:53:23;3.20;99.90
10051;DHT22;5065;46.942;7.432;2023-03-01T10:56:01;3.20;99.90
10051;DHT22;5065;46.942;7.432;2023-03-01T10:58:29;3.20;99.90
10051;DHT22;5065;46.942;7.432;2023-03-01T11:00:57;3.20;99.90
10051;DHT22;5065;46.942;7.432;2023-03-01T11:03:28;3.30;99.90
10051;DHT22;5065;46.942;7.432;2023-03-01T11:05:59;3.10;99.90
10051;DHT22;5065;46.942;7.432;2023-03-01T11:11:35;3.30;99.90
10051;DHT22;5065;46.942;7.432;2023-03-01T11:14:07;3.40;99.90
10051;DHT22;5065;46.942;7.432;2023-03-01T11:16:36;3.50;99.90
10051;DHT22;5065;46.942;7.432;2023-03-01T11:19:19;3.40;99.90
10051;DHT22;5065;46.942;7.432;2023-03-01T11:22:01;3.40;99.90
10051;DHT22;5065;46.942;7.432;2023-03-01T11:24:39;3.40;99.90
10051;DHT22;5065;46.942;7.432;2023-03-01T11:27:16;3.40;99.90
10051;DHT22;5065;46.942;7.432;2023-03-01T11:29:46;3.60;99.90
10051;DHT22;5065;46.942;7.432;2023-03-01T11:32:18;3.50;99.90
10051;DHT22;5065;46.942;7.432;2023-03-01T11:34:50;3.50;99.90
10051;DHT22;5065;46.942;7.432;2023-03-01T11:37:29;3.40;99.90
10051;DHT22;5065;46.942;7.432;2023-03-01T11:40:10;3.50;99.90
10051;DHT22;5065;46.942;7.432;2023-03-01T11:42:50;3.50;99.90
10051;DHT22;5065;46.942;7.432;2023-03-01T11:45:23;3.60;99.90
10051;DHT22;5065;46.942;7.432;2023-03-01T11:47:59;3.70;99.90
10051;DHT22;5065;46.942;7.432;2023-03-01T11:50:38;3.60;99.90
10051;DHT22;5065;46.942;7.432;2023-03-01T11:53:37;3.60;99.90
10051;DHT22;5065;46.942;7.432;2023-03-01T11:56:19;3.70;99.90
10051;DHT22;5065;46.942;7.432;2023-03-01T12:02:23;3.60;99.90
10051;DHT22;5065;46.942;7.432;2023-03-01T12:05:10;3.70;99.90
10051;DHT22;5065;46.942;7.432;2023-03-01T12:07:48;3.70;99.90
10051;DHT22;5065;46.942;7.432;2023-03-01T12:10:25;3.60;99.90
10051;DHT22;5065;46.942;7.432;2023-03-01T12:13:14;3.60;99.90
10051;DHT22;5065;46.942;7.432;2023-03-01T12:16:11;3.60;99.90
10051;DHT22;5065;46.942;7.432;2023-03-01T12:19:05;3.70;99.90
10051;DHT22;5065;46.942;7.432;2023-03-01T12:21:44;3.80;99.90
10051;DHT22;5065;46.942;7.432;2023-03-01T12:24:29;3.80;99.90
10051;DHT22;5065;46.942;7.432;2023-03-01T12:27:12;3.80;99.90
10051;DHT22;5065;46.942;7.432;2023-03-01T12:29:54;3.80;99.90
10051;DHT22;5065;46.942;7.432;2023-03-01T12:32:37;3.80;99.90
10051;DHT22;5065;46.942;7.432;2023-03-01T12:35:36;3.80;99.90
10051;DHT22;5065;46.942;7.432;2023-03-01T12:38:20;3.90;99.90
10051;DHT22;5065;46.942;7.432;2023-03-01T12:41:21;3.90;99.90
10051;DHT22;5065;46.942;7.432;2023-03-01T12:47:07;4.10;99.90
10051;DHT22;5065;46.942;7.432;2023-03-01T12:49:40;4.10;99.90
10051;DHT22;5065;46.942;7.432;2023-03-01T12:52:13;4.10;99.90
10051;DHT22;5065;46.942;7.432;2023-03-01T12:54:41;4.10;99.90
10051;DHT22;5065;46.942;7.432;2023-03-01T12:57:15;4.10;99.90
10051;DHT22;5065;46.942;7.432;2023-03-01T12:59:57;4.10;99.90
10051;DHT22;5065;46.942;7.432;2023-03-01T13:02:31;4.10;99.90
10051;DHT22;5065;46.942;7.432;2023-03-01T13:05:19;4.00;99.90
10051;DHT22;5065;46.942;7.432;2023-03-01T13:07:53;4.00;99.90
10051;DHT22;5065;46.942;7.432;2023-03-01T13:10:28;4.00;99.90
10051;DHT22;5065;46.942;7.432;2023-03-01T13:13:13;4.00;99.90
10051;DHT22;5065;46.942;7.432;2023-03-01T13:15:41;4.10;99.90
10051;DHT22;5065;46.942;7.432;2023-03-01T13:18:29;4.20;99.90
10051;DHT22;5065;46.942;7.432;2023-03-01T13:20:59;4.20;99.90
10051;DHT22;5065;46.942;7.432;2023-03-01T13:23:29;4.20;99.90
10051;DHT22;5065;46.942;7.432;2023-03-01T13:28:49;4.10;99.90
10051;DHT22;5065;46.942;7.432;2023-03-01T13:34:59;4.00;99.90
10051;DHT22;5065;46.942;7.432;2023-03-01T13:37:35;4.10;99.90
10051;DHT22;5065;46.942;7.432;2023-03-01T13:42:51;4.10;99.90
10051;DHT22;5065;46.942;7.432;2023-03-01T13:45:24;4.20;99.90
10051;DHT22;5065;46.942;7.432;2023-03-01T13:47:58;4.30;99.90
10051;DHT22;5065;46.942;7.432;2023-03-01T13:50:29;4.20;99.90
10051;DHT22;5065;46.942;7.432;2023-03-01T13:53:02;4.20;99.90
10051;DHT22;5065;46.942;7.432;2023-03-01T13:55:36;4.00;99.90
10051;DHT22;5065;46.942;7.432;2023-03-01T13:58:16;3.90;99.90
10051;DHT22;5065;46.942;7.432;2023-03-01T14:00:45;4.00;99.90
10051;DHT22;5065;46.942;7.432;2023-03-01T14:03:15;3.90;99.90
10051;DHT22;5065;46.942;7.432;2023-03-01T14:05:57;3.80;99.90
10051;DHT22;5065;46.942;7.432;2023-03-01T14:08:26;3.90;99.90
10051;DHT22;5065;46.942;7.432;2023-03-01T14:14:11;3.80;99.90
10051;DHT22;5065;46.942;7.432;2023-03-01T14:16:49;3.80;99.90
10051;DHT22;5065;46.942;7.432;2023-03-01T14:19:23;3.90;99.90
10051;DHT22;5065;46.942;7.432;2023-03-01T14:22:05;3.90;99.90
10051;DHT22;5065;46.942;7.432;2023-03-01T14:24:39;3.90;99.90
10051;DHT22;5065;46.942;7.432;2023-03-01T14:27:11;4.00;99.90
10051;DHT22;5065;46.942;7.432;2023-03-01T14:29:40;4.20;99.90
10051;DHT22;5065;46.942;7.432;2023-03-01T14:32:12;4.20;99.90
10051;DHT22;5065;46.942;7.432;2023-03-01T14:34:44;4.20;99.90
10051;DHT22;5065;46.942;7.432;2023-03-01T14:37:20;4.10;99.90
10051;DHT22;5065;46.942;7.432;2023-03-01T14:39:48;4.10;99.90
10051;DHT22;5065;46.942;7.432;2023-03-01T14:42:16;4.10;99.90
10051;DHT22;5065;46.942;7.432;2023-03-01T14:44:47;4.00;99.90
10051;DHT22;5065;46.942;7.432;2023-03-01T14:47:23;3.90;99.90
10051;DHT22;5065;46.942;7.432;2023-03-01T14:49:56;3.80;99.90
10051;DHT22;5065;46.942;7.432;2023-03-01T14:52:31;3.70;99.90
10051;DHT22;5065;46.942;7.432;2023-03-01T14:55:02;3.70;99.90
10051;DHT22;5065;46.942;7.432;2023-03-01T14:57:30;3.70;99.90
10051;DHT22;5065;46.942;7.432;2023-03-01T15:00:00;3.70;99.90
10051;DHT22;5065;46.942;7.432;2023-03-01T15:02:30;3.60;99.90
10051;DHT22;5065;46.942;7.432;2023-03-01T15:05:00;3.70;99.90
10051;DHT22;5065;46.942;7.432;2023-03-01T15:07:32;3.80;99.90
10051;DHT22;5065;46.942;7.432;2023-03-01T15:10:02;3.90;99.90
10051;DHT22;5065;46.942;7.432;2023-03-01T15:12:38;4.00;99.90
10051;DHT22;5065;46.942;7.432;2023-03-01T15:15:34;4.00;99.90
10051;DHT22;5065;46.942;7.432;2023-03-01T15:18:04;4.00;99.90
10051;DHT22;5065;46.942;7.432;2023-03-01T15:20:33;3.90;99.90
10051;DHT22;5065;46.942;7.432;2023-03-01T15:23:05;3.90;99.90
10051;DHT22;5065;46.942;7.432;2023-03-01T15:25:33;3.90;99.90
10051;DHT22;5065;46.942;7.432;2023-03-01T15:28:02;3.90;99.90
10051;DHT22;5065;46.942;7.432;2023-03-01T15:30:32;4.00;99.90
10051;DHT22;5065;46.942;7.432;2023-03-01T15:33:25;4.00;99.90
10051;DHT22;5065;46.942;7.432;2023-03-01T15:35:55;4.10;99.90
10051;DHT22;5065;46.942;7.432;2023-03-01T15:38:35;4.00;99.90
10051;DHT22;5065;46.942;7.432;2023-03-01T15:41:21;4.10;99.90
10051;DHT22;5065;46.942;7.432;2023-03-01T15:43:49;4.10;99.90
10051;DHT22;5065;46.942;7.432;2023-03-01T15:46:27;4.00;99.90
10051;DHT22;5065;46.942;7.432;2023-03-01T15:48:58;4.00;99.90
10051;DHT22;5065;46.942;7.432;2023-03-01T15:51:31;4.00;99.90
10051;DHT22;5065;46.942;7.432;2023-03-01T15:54:02;4.00;99.90
10051;DHT22;5065;46.942;7.432;2023-03-01T15:56:29;4.00;99.90
10051;DHT22;5065;46.942;7.432;2023-03-01T15:59:01;4.00;99.90
10051;DHT22;5065;46.942;7.432;2023-03-01T16:01:29;4.00;99.90
10051;DHT22;5065;46.942;7.432;2023-03-01T16:03:56;4.00;99.90
10051;DHT22;5065;46.942;7.432;2023-03-01T16:06:25;3.90;99.90
10051;DHT22;5065;46.942;7.432;2023-03-01T16:08:53;4.00;99.90
10051;DHT22;5065;46.942;7.432;2023-03-01T16:11:22;4.00;99.90
10051;DHT22;5065;46.942;7.432;2023-03-01T16:13:49;3.90;99.90
10051;DHT22;5065;46.942;7.432;2023-03-01T16:16:16;3.80;99.90
10051;DHT22;5065;46.942;7.432;2023-03-01T16:18:45;3.80;99.90
10051;DHT22;5065;46.942;7.432;2023-03-01T16:21:15;3.80;99.90
10051;DHT22;5065;46.942;7.432;2023-03-01T16:23:44;3.90;99.90
10051;DHT22;5065;46.942;7.432;2023-03-01T16:26:12;3.90;99.90
10051;DHT22;5065;46.942;7.432;2023-03-01T16:28:41;3.90;99.90
10051;DHT22;5065;46.942;7.432;2023-03-01T16:31:09;3.80;99.90
10051;DHT22;5065;46.942;7.432;2023-03-01T16:33:37;3.70;99.90
10051;DHT22;5065;46.942;7.432;2023-03-01T16:36:07;3.70;99.90
10051;DHT22;5065;46.942;7.432;2023-03-01T16:38:34;3.80;99.90
10051;DHT22;5065;46.942;7.432;2023-03-01T16:41:02;3.80;99.90
10051;DHT22;5065;46.942;7.432;2023-03-01T16:43:29;3.80;99.90
10051;DHT22;5065;46.942;7.432;2023-03-01T16:45:58;3.70;99.90
10051;DHT22;5065;46.942;7.432;2023-03-01T16:48:25;3.80;99.90
10051;DHT22;5065;46.942;7.432;2023-03-01T16:50:57;3.80;99.90
10051;DHT22;5065;46.942;7.432;2023-03-01T16:53:25;3.70;99.90
10051;DHT22;5065;46.942;7.432;2023-03-01T16:55:56;3.70;99.90